Latest Weather Observations for Tennant Creek

IDD60801

Issued at 4:05 pm CST Friday 25 July 2014 (issued every 30 minutes, with the page automatically refreshed every 10 minutes)

About weather observations | Map of weather stations | Latest weather observations for NT | Other Formats
Station Details ID: 015135 Name: TENNANT CREEK AIRPORT Lat: -19.64 Lon: 134.18 Height: 375.7 m
Data from the previous 72 hours. | See also: Recent months at Tennant Creek
Date/Time
CST
Temp
°C
App
Temp
°C
Dew
Point
Rel
Hum
%
Delta-T
°C
Wind Press
QNH
hPa
Press
MSL
hPa
Rain
since 9 am
mm
Dir
 
Spd
km/h
Gust
km/h
Spd
kts
Gust
kts
25/04:00pm 28.2 25.2 0.9 17 13.3 WSW 6 9 3 5 1017.0 - 0.0
25/03:30pm 28.8 24.6 -0.6 15 14.0 WNW 11 22 6 12 1017.0 - 0.0
25/03:00pm 29.0 25.0 0.4 15 13.9 NNW 11 22 6 12 1017.2 1016.3 0.0
25/02:30pm 29.2 25.8 -0.4 14 14.2 NNE 7 17 4 9 1017.5 - 0.0
25/02:00pm 29.1 25.9 1.0 16 13.8 N 7 13 4 7 1017.9 - 0.0
25/01:30pm 28.4 24.1 1.3 17 13.3 NNE 13 33 7 18 1018.4 - 0.0
25/01:00pm 27.8 24.3 1.5 18 12.9 N 9 17 5 9 1018.8 - 0.0
25/12:30pm 27.7 24.0 2.4 19 12.6 NNW 11 22 6 12 1019.2 - 0.0
25/12:00pm 27.4 23.5 3.2 21 12.2 N 13 24 7 13 1019.7 1018.8 0.0
25/11:30am 26.7 23.4 4.8 24 11.3 N 11 20 6 11 1020.0 - 0.0
25/11:00am 26.3 23.3 5.9 27 10.7 WNW 11 20 6 11 1020.2 - 0.0
25/10:30am 25.2 22.2 7.5 32 9.5 WNW 13 24 7 13 1020.3 - 0.0
25/10:00am 24.2 21.2 7.5 34 8.9 NW 13 20 7 11 1020.2 - 0.0
25/09:30am 23.0 19.1 7.3 36 8.3 NNW 17 24 9 13 1019.9 - 0.0
25/09:00am 21.7 18.0 6.4 37 7.9 NNW 15 20 8 11 1019.8 1018.9 0.0
25/08:30am 20.3 16.9 3.9 34 8.0 NNW 11 20 6 11 1019.4 - 0.0
25/08:00am 18.8 14.9 1.0 30 8.1 N 11 22 6 12 1019.0 - 0.0
25/07:30am 15.6 11.8 -0.5 33 6.9 N 9 13 5 7 1018.7 - 0.0
25/07:00am 13.5 9.4 -0.2 39 5.8 NNE 11 13 6 7 1018.7 - 0.0
25/06:30am 12.8 9.5 -1.0 38 5.7 NNE 6 7 3 4 1018.6 - 0.0
25/06:00am 12.6 9.6 0.7 44 5.1 NE 6 9 3 5 1018.3 1017.3 0.0
25/05:30am 12.7 9.1 -1.9 36 5.9 NW 7 9 4 5 1018.0 - 0.0
25/05:00am 15.3 9.8 -2.1 30 7.2 SW 17 24 9 13 1017.1 - 0.0
25/04:30am 15.4 13.8 2.2 41 6.0 CALM 0 4 0 2 1016.7 - 0.0
25/04:00am 16.6 14.6 -0.1 32 7.3 CALM 0 0 0 0 1016.4 - 0.0
25/03:30am 17.1 15.1 -0.3 30 7.6 CALM 0 0 0 0 1016.5 - 0.0
25/03:00am 17.4 15.7 1.9 35 7.1 CALM 0 0 0 0 1016.5 1015.5 0.0
25/02:30am 17.7 16.0 1.8 34 7.3 CALM 0 0 0 0 1016.7 - 0.0
25/02:00am 17.6 14.8 2.2 35 7.1 N 6 7 3 4 1016.7 - 0.0
25/01:30am 18.3 14.9 -1.8 25 8.6 N 6 7 3 4 1016.7 - 0.0
25/01:00am 18.5 15.2 -1.4 26 8.6 N 6 7 3 4 1016.7 - 0.0
25/12:30am 18.1 14.7 -1.8 26 8.5 N 6 7 3 4 1016.7 - 0.0
25/12:00am 17.9 14.8 0.1 30 7.9 N 6 7 3 4 1016.7 1015.7 0.0
 
Date/Time
CST
Temp
°C
App
Temp
°C
Dew
Point
Rel
Hum
%
Delta-T
°C
Wind Press
QNH
hPa
Press
MSL
hPa
Rain
since 9 am
mm
Dir
 
Spd
km/h
Gust
km/h
Spd
kts
Gust
kts
24/11:30pm 17.8 14.8 0.9 32 7.6 N 6 7 3 4 1016.9 - 0.0
24/11:00pm 17.9 14.2 -0.3 29 8.0 N 9 13 5 7 1017.0 - 0.0
24/10:30pm 16.7 14.9 1.1 35 7.0 CALM 0 0 0 0 1016.8 - 0.0
24/10:00pm 16.5 14.6 0.7 34 7.0 CALM 0 0 0 0 1016.7 - 0.0
24/09:30pm 17.2 15.6 2.5 37 6.8 CALM 0 0 0 0 1016.5 - 0.0
24/09:00pm 18.4 15.2 -0.8 27 8.4 NW 6 7 3 4 1016.2 1015.2 0.0
24/08:30pm 18.6 16.8 1.3 31 7.9 CALM 0 0 0 0 1016.0 - 0.0
24/08:00pm 19.4 16.2 -0.4 26 8.8 E 6 7 3 4 1015.6 - 0.0
24/07:30pm 20.3 17.4 -0.9 24 9.4 WSW 4 6 2 3 1015.3 - 0.0
24/07:00pm 21.9 19.1 -3.7 17 10.9 N 2 6 1 3 1014.8 - 0.0
24/06:30pm 23.5 20.4 3.5 27 9.9 N 9 11 5 6 1014.5 - 0.0
24/06:00pm 26.1 22.4 -4.3 13 13.3 NNW 6 9 3 5 1014.2 1013.2 0.0
24/05:30pm 27.7 23.3 -6.1 10 14.5 N 9 13 5 7 1014.1 - 0.0
24/05:00pm 28.3 25.0 -4.2 11 14.5 WNW 4 13 2 7 1014.0 - 0.0
24/04:30pm 28.3 25.8 -4.2 11 14.5 CALM 0 6 0 3 1013.9 - 0.0
24/04:00pm 28.7 24.3 -6.3 10 15.1 NE 9 15 5 8 1013.7 - 0.0
24/03:30pm 29.2 25.1 -7.1 9 15.5 W 7 15 4 8 1013.9 - 0.0
24/03:00pm 28.5 24.6 -6.4 10 15.0 E 6 13 3 7 1014.1 1013.1 0.0
24/02:30pm 28.6 23.9 -9.4 8 15.5 NW 9 17 5 9 1014.3 - 0.0
24/02:00pm 27.8 24.0 -5.2 11 14.4 N 6 11 3 6 1014.5 - 0.0
24/01:30pm 28.0 23.3 -9.7 8 15.2 N 9 15 5 8 1015.0 - 0.0
24/01:00pm 28.6 24.2 -10.2 7 15.6 N 7 17 4 9 1015.5 - 0.0
24/12:30pm 27.9 22.3 -10.9 7 15.3 NNW 13 20 7 11 1016.1 - 0.0
24/12:00pm 27.5 22.4 -8.8 8 14.8 N 11 20 6 11 1016.7 1015.7 0.0
24/11:30am 26.7 21.2 -9.1 9 14.4 N 13 17 7 9 1017.2 - 0.0
24/11:00am 26.6 20.8 -8.1 9 14.2 N 15 22 8 12 1017.4 - 0.0
24/10:30am 25.3 19.2 -7.5 11 13.4 N 17 24 9 13 1017.5 - 0.0
24/10:00am 24.1 17.6 -7.7 11 12.8 N 19 24 10 13 1017.5 - 0.0
24/09:30am 21.9 15.4 -7.4 13 11.6 N 19 26 10 14 1017.4 - 0.0
24/09:00am 20.3 14.3 -6.9 15 10.7 N 17 22 9 12 1017.3 1016.4 0.0
24/08:30am 18.2 12.5 -7.1 17 9.7 N 15 22 8 12 1017.0 - 0.0
24/08:00am 17.5 15.5 -0.3 30 7.8 CALM 0 0 0 0 1016.3 - 0.0
24/07:59am 17.1 15.1 -0.3 30 7.6 CALM 0 0 0 0 1016.3 - 0.0
24/07:30am 11.9 10.0 0.3 45 4.9 CALM 0 0 0 0 1015.8 - 0.0
24/07:00am 11.2 9.2 0.2 46 4.6 CALM 0 0 0 0 1015.5 - 0.0
24/06:30am 11.4 9.3 -0.5 44 4.9 CALM 0 0 0 0 1015.2 - 0.0
24/06:00am 12.1 10.1 -0.1 43 5.1 CALM 0 0 0 0 1014.7 1013.8 0.0
24/05:30am 12.7 10.2 -3.8 31 6.4 CALM 0 0 0 0 1014.6 - 0.0
24/05:00am 11.5 9.4 -1.0 42 5.1 CALM 0 0 0 0 1014.6 - 0.0
24/04:30am 12.7 9.4 -1.5 37 5.8 S 6 7 3 4 1014.5 - 0.0
24/04:00am 12.7 10.4 -2.6 34 6.1 CALM 0 0 0 0 1014.4 - 0.0
24/03:30am 13.5 11.3 -1.6 35 6.2 CALM 0 0 0 0 1014.5 - 0.0
24/03:00am 14.3 11.0 -4.5 27 7.3 E 4 6 2 3 1014.4 1013.4 0.0
24/02:30am 15.0 12.5 -3.9 27 7.5 CALM 0 0 0 0 1014.5 - 0.0
24/02:00am 15.7 12.6 -2.9 27 7.6 N 4 7 2 4 1014.8 - 0.0
24/01:30am 17.1 13.9 -3.9 23 8.5 N 4 7 2 4 1015.0 - 0.0
24/01:00am 16.2 12.7 -3.2 26 7.9 N 6 7 3 4 1015.2 - 0.0
24/12:30am 15.9 12.5 -2.1 29 7.5 N 6 7 3 4 1015.4 - 0.0
24/12:00am 16.4 13.0 -2.4 27 7.8 N 6 7 3 4 1015.4 1014.4 0.0
 
Date/Time
CST
Temp
°C
App
Temp
°C
Dew
Point
Rel
Hum
%
Delta-T
°C
Wind Press
QNH
hPa
Press
MSL
hPa
Rain
since 9 am
mm
Dir
 
Spd
km/h
Gust
km/h
Spd
kts
Gust
kts
23/11:30pm 16.6 13.1 -3.2 25 8.1 N 6 7 3 4 1015.4 - 0.0
23/11:00pm 16.8 14.8 -0.1 31 7.4 CALM 0 0 0 0 1015.5 - 0.0
23/10:30pm 18.0 14.1 -5.0 20 9.2 N 7 9 4 5 1015.6 - 0.0
23/10:00pm 17.8 13.5 -4.6 21 9.0 NNE 9 11 5 6 1015.6 - 0.0
23/09:30pm 18.2 14.8 -0.4 28 8.2 NNE 7 9 4 5 1015.7 - 0.0
23/09:00pm 18.4 14.7 -4.1 21 9.2 NE 6 9 3 5 1015.5 1014.5 0.0
23/08:30pm 18.3 14.5 -5.8 19 9.5 N 6 7 3 4 1015.4 - 0.0
23/08:00pm 18.9 16.3 -4.8 19 9.6 CALM 0 6 0 3 1015.2 - 0.0
23/07:30pm 19.5 15.9 -3.4 21 9.6 N 6 9 3 5 1014.7 - 0.0
23/07:00pm 20.2 17.8 -3.1 20 9.9 CALM 0 4 0 2 1014.5 - 0.0
23/06:30pm 22.4 19.0 -2.0 19 10.8 NNW 6 7 3 4 1014.2 - 0.0
23/06:00pm 25.8 23.0 -6.9 11 13.6 CALM 0 4 0 2 1014.0 1013.0 0.0
23/05:30pm 27.3 23.3 -8.1 9 14.6 WSW 6 9 3 5 1013.9 - 0.0
23/05:00pm 28.1 24.9 -7.2 9 14.9 N 2 7 1 4 1013.9 - 0.0
23/04:30pm 27.7 22.8 -11.7 7 15.3 W 9 13 5 7 1013.9 - 0.0
23/04:00pm 28.1 23.6 -12.4 6 15.6 W 7 17 4 9 1013.8 - 0.0
23/03:30pm 28.0 23.1 -11.2 7 15.4 W 9 13 5 7 1013.9 - 0.0
23/03:00pm 27.7 22.9 -10.9 7 15.2 W 9 15 5 8 1014.1 1013.1 0.0
23/02:30pm 27.3 22.5 -10.3 8 14.9 SW 9 13 5 7 1014.5 - 0.0
23/02:00pm 27.4 22.2 -10.6 7 15.0 W 11 20 6 11 1015.1 - 0.0
23/01:30pm 26.8 22.4 -10.9 7 14.7 N 7 15 4 8 1015.4 - 0.0
23/01:00pm 26.6 22.2 -10.2 8 14.5 NNW 7 13 4 7 1016.1 - 0.0
23/12:30pm 25.8 21.4 -9.7 9 14.0 NE 7 17 4 9 1016.7 - 0.0
23/12:00pm 25.2 19.6 -11.4 8 13.9 NNE 13 22 7 12 1017.3 1016.4 0.0
23/11:30am 24.7 18.6 -13.7 7 13.9 NE 15 22 8 12 1018.0 - 0.0
23/11:00am 23.5 17.9 -11.3 9 13.0 NE 13 17 7 9 1018.3 - 0.0
23/10:30am 21.9 15.6 -10.0 11 12.0 ENE 17 24 9 13 1018.5 - 0.0
23/10:00am 21.1 14.4 -10.0 11 11.6 NE 19 24 10 13 1018.6 - 0.0
23/09:00am 18.7 12.4 -10.6 13 10.5 ENE 17 22 9 12 1018.6 1017.6 0.0
23/08:30am 16.6 11.1 -9.3 16 9.3 ENE 13 22 7 12 1018.7 - 0.0
23/08:00am 15.2 9.8 -9.0 18 8.6 E 13 17 7 9 1018.2 - 0.0
23/07:30am 13.6 7.4 -8.6 20 7.8 E 17 20 9 11 1018.0 - 0.0
23/07:00am 13.5 7.4 -8.3 21 7.7 E 17 20 9 11 1017.9 - 0.0
23/06:30am 13.7 7.6 -7.8 22 7.7 E 17 20 9 11 1017.6 - 0.0
23/06:00am 13.2 7.9 -6.9 24 7.3 E 13 15 7 8 1017.2 1016.3 0.0
23/05:30am 13.0 7.8 -6.3 25 7.1 E 13 15 7 8 1017.2 - 0.0
23/05:00am 13.8 8.6 -6.5 24 7.5 E 13 15 7 8 1017.1 - 0.0
23/04:30am 13.6 8.0 -6.0 25 7.3 E 15 17 8 9 1017.1 - 0.0
23/04:00am 13.4 8.7 -5.0 27 7.0 E 11 13 6 7 1017.1 - 0.0
23/03:30am 13.8 9.1 -4.7 27 7.1 E 11 13 6 7 1017.0 - 0.0
23/03:00am 14.8 9.7 -5.3 24 7.7 E 13 17 7 9 1017.1 1016.2 0.0
23/02:30am 14.2 9.6 -3.9 28 7.1 E 11 13 6 7 1017.3 - 0.0
23/02:00am 15.2 10.7 -3.6 27 7.5 E 11 15 6 8 1017.4 - 0.0
23/01:30am 16.1 11.2 -3.4 26 7.9 E 13 15 7 8 1017.5 - 0.0
23/01:00am 16.2 11.3 -3.2 26 7.9 ENE 13 13 7 7 1017.8 - 0.0
23/12:30am 16.3 11.8 -3.0 26 7.9 E 11 13 6 7 1017.8 - 0.0
23/12:00am 15.9 11.4 -3.0 27 7.7 E 11 13 6 7 1017.8 1016.8 0.0
 
Date/Time
CST
Temp
°C
App
Temp
°C
Dew
Point
Rel
Hum
%
Delta-T
°C
Wind Press
QNH
hPa
Press
MSL
hPa
Rain
since 9 am
mm
Dir
 
Spd
km/h
Gust
km/h
Spd
kts
Gust
kts
22/11:30pm 17.0 12.6 -2.4 26 8.1 E 11 13 6 7 1017.8 - 0.0
22/11:00pm 16.6 12.2 -2.8 26 8.0 E 11 13 6 7 1017.8 - 0.0
22/10:30pm 17.1 13.2 -1.4 28 7.9 E 9 11 5 6 1017.9 - 0.0
22/10:00pm 17.1 13.1 -2.6 26 8.2 E 9 11 5 6 1017.9 - 0.0
22/09:30pm 17.5 13.3 -3.9 23 8.7 E 9 11 5 6 1017.8 - 0.0
22/09:00pm 18.4 14.5 -1.2 26 8.5 E 9 9 5 5 1017.4 1016.5 0.0
22/08:30pm 19.3 15.1 -3.5 21 9.5 E 9 11 5 6 1017.4 - 0.0
22/08:00pm 20.0 16.0 -2.3 22 9.6 E 9 11 5 6 1017.2 - 0.0
22/07:30pm 20.0 16.9 1.1 28 8.7 ENE 7 7 4 4 1016.8 - 0.0
22/07:00pm 20.3 17.7 3.3 32 8.2 E 6 7 3 4 1016.6 - 0.0
22/06:30pm 22.8 19.5 -1.6 19 10.9 ENE 6 7 3 4 1016.3 - 0.0
22/06:00pm 24.8 20.1 -5.5 13 12.8 ENE 11 17 6 9 1015.9 1014.9 0.0
22/05:30pm 25.9 20.7 -6.1 11 13.5 NE 13 17 7 9 1015.7 - 0.0
22/05:00pm 26.3 21.1 -6.0 11 13.7 E 13 17 7 9 1015.7 - 0.0
22/04:30pm 26.9 21.4 -5.2 12 13.9 NE 15 22 8 12 1015.7 - 0.0

Other Formats:

Comma delimited format used in spreadsheet applications
http://www.bom.gov.au/fwo/IDD60801/IDD60801.94238.axf

JavaScript Object Notation format (JSON) in row-major order
http://www.bom.gov.au/fwo/IDD60801/IDD60801.94238.json